Terminal Aerodrome Forecast
Issued by NWS

Home | Current Version | Previous Version | Text Only | Print | Product List | Glossary Off
Versions: 1 2 3 4 5 6 7 8 9 10 11 12 13 14 15 16 17 18 19 20 21 22

597
FTUS43 KPAH 280204 AAA
TAFCGI
TAF AMD
KCGI 280204Z 2802/2824 21006KT P6SM BKN060 BKN250
     FM280500 27003KT 5SM BR BKN015
     FM280800 35004KT 4SM BR BKN007
      TEMPO 2811/2813 1 1/2SM BR OVC008
     FM281500 36010KT P6SM SCT013 BKN026
     FM281900 36009G13KT P6SM SCT030=

USA.gov is the U.S. government's official web portal to all federal, state and local government web resources and services.